createdAt,value
2023-02-19T00:01:01.381Z,101237.09
2023-02-19T00:05:22.756Z,101237.25
2023-02-19T00:09:44.151Z,101235.44
2023-02-19T00:14:05.937Z,101237.19
2023-02-19T00:18:27.371Z,101231.13
2023-02-19T00:22:48.783Z,101238.06
2023-02-19T00:27:10.197Z,101220.50
2023-02-19T00:31:35.822Z,101220.53
2023-02-19T00:36:00.694Z,101221.31
2023-02-19T00:40:22.692Z,101211.78
2023-02-19T00:44:44.130Z,101214.31
2023-02-19T00:49:08.325Z,101222.31
2023-02-19T00:53:29.934Z,101216.94
2023-02-19T00:57:51.391Z,101212.78
2023-02-19T01:02:12.839Z,101216.97
2023-02-19T01:06:35.253Z,101220.50
2023-02-19T01:10:57.506Z,101208.38
2023-02-19T01:15:18.974Z,101211.66
2023-02-19T01:19:40.378Z,101214.41
2023-02-19T01:24:01.768Z,101210.91
2023-02-19T01:28:23.282Z,101212.72
2023-02-19T01:32:44.779Z,101217.09
2023-02-19T01:37:08.052Z,101218.91
2023-02-19T01:41:29.422Z,101217.97
2023-02-19T01:45:51.642Z,101215.44
2023-02-19T01:50:13.374Z,101219.84
2023-02-19T01:54:37.245Z,101216.97
2023-02-19T01:59:00.020Z,101221.47
2023-02-19T02:03:21.789Z,101220.72
2023-02-19T02:08:01.936Z,101228.53
2023-02-19T02:12:23.362Z,101231.28
2023-02-19T02:16:58.091Z,101228.50
2023-02-19T02:21:35.954Z,101222.34
2023-02-19T02:26:18.440Z,101220.72
2023-02-19T02:30:54.994Z,101217.97
2023-02-19T02:35:23.834Z,101222.59
2023-02-19T02:39:46.719Z,101217.19
2023-02-19T02:44:08.147Z,101219.00
2023-02-19T02:48:36.871Z,101211.03
2023-02-19T02:53:21.501Z,101218.13
2023-02-19T02:57:43.104Z,101219.03
2023-02-19T03:02:14.872Z,101219.81
2023-02-19T03:06:37.868Z,101213.56
2023-02-19T03:11:25.473Z,101214.41
2023-02-19T03:16:15.001Z,101212.81
2023-02-19T03:20:41.668Z,101205.75
2023-02-19T03:25:35.907Z,101207.41
2023-02-19T03:30:02.453Z,101196.69
2023-02-19T03:34:31.737Z,101199.34
2023-02-19T03:38:59.497Z,101194.22
2023-02-19T03:43:26.975Z,101205.47
2023-02-19T03:48:42.229Z,101203.00
2023-02-19T03:53:15.044Z,101202.88
2023-02-19T03:57:47.183Z,101201.97
2023-02-19T04:02:15.730Z,101208.22
2023-02-19T04:06:39.794Z,101221.34
2023-02-19T04:11:02.084Z,101225.84
2023-02-19T04:15:31.506Z,101232.00
2023-02-19T04:19:54.417Z,101239.13
2023-02-19T04:24:27.990Z,101250.19
2023-02-19T04:28:49.432Z,101242.41
2023-02-19T04:33:10.861Z,101251.06
2023-02-19T04:37:32.218Z,101248.25
2023-02-19T04:41:53.696Z,101251.16
2023-02-19T04:46:15.233Z,101265.25
2023-02-19T04:50:40.591Z,101260.69
2023-02-19T04:55:02.110Z,101270.41
2023-02-19T04:59:23.527Z,101277.38
2023-02-19T05:03:44.943Z,101281.84
2023-02-19T05:08:06.319Z,101285.38
2023-02-19T05:12:08.015Z,101298.47
2023-02-19T05:16:29.412Z,101298.47
2023-02-19T05:20:51.546Z,101308.03
2023-02-19T05:25:12.936Z,101309.75
2023-02-19T05:29:34.316Z,101317.66
2023-02-19T05:33:56.409Z,101306.97
2023-02-19T05:38:18.747Z,101316.69
2023-02-19T05:42:40.134Z,101307.00
2023-02-19T05:47:01.525Z,101322.22
2023-02-19T05:51:25.673Z,101323.75
2023-02-19T05:55:47.047Z,101331.06
2023-02-19T06:00:19.061Z,101330.91
2023-02-19T06:04:40.507Z,101332.50
2023-02-19T06:09:01.879Z,101346.56
2023-02-19T06:13:23.307Z,101346.59
2023-02-19T06:17:44.692Z,101352.78
2023-02-19T06:22:06.233Z,101361.56
2023-02-19T06:26:29.176Z,101372.88
2023-02-19T06:30:52.126Z,101371.06
2023-02-19T06:35:13.514Z,101377.16
2023-02-19T06:39:34.941Z,101385.25
2023-02-19T06:43:36.932Z,101393.13
2023-02-19T06:47:38.660Z,101394.00
2023-02-19T06:51:40.135Z,101399.16
2023-02-19T06:55:41.641Z,101408.94
2023-02-19T06:59:43.163Z,101415.69
2023-02-19T07:03:44.661Z,101419.50
2023-02-19T07:07:46.117Z,101424.88
2023-02-19T07:11:47.549Z,101429.94
2023-02-19T07:15:51.098Z,101439.50
2023-02-19T07:19:53.397Z,101441.53
2023-02-19T07:23:55.185Z,101456.25
2023-02-19T07:27:56.958Z,101466.84
2023-02-19T07:31:58.480Z,101464.31
2023-02-19T07:35:59.952Z,101464.44
2023-02-19T07:40:01.611Z,101472.47
2023-02-19T07:44:03.199Z,101483.41
2023-02-19T07:48:04.682Z,101502.72
2023-02-19T07:52:06.182Z,101511.56
2023-02-19T07:56:08.556Z,101515.03
2023-02-19T08:00:10.722Z,101527.13
2023-02-19T08:04:15.533Z,101517.59
2023-02-19T08:08:17.302Z,101531.00
2023-02-19T08:12:37.473Z,101546.94
2023-02-19T08:16:43.333Z,101546.34
2023-02-19T08:20:45.103Z,101552.56
2023-02-19T08:24:46.562Z,101561.25
2023-02-19T08:28:48.309Z,101575.66
2023-02-19T08:32:50.074Z,101581.69
2023-02-19T08:36:51.490Z,101598.22
2023-02-19T08:40:52.917Z,101606.09
2023-02-19T08:44:54.441Z,101603.69
2023-02-19T08:48:55.925Z,101612.28
2023-02-19T08:52:59.265Z,101627.22
2023-02-19T08:57:00.777Z,101609.94
2023-02-19T09:01:02.353Z,101612.25
2023-02-19T09:05:05.502Z,101623.16
2023-02-19T09:09:06.932Z,101628.66
2023-02-19T09:13:08.415Z,101620.44
2023-02-19T09:17:10.543Z,101624.16
2023-02-19T09:21:12.448Z,101629.25
2023-02-19T09:25:14.317Z,101650.91
2023-02-19T09:29:16.067Z,101648.88
2023-02-19T09:33:17.540Z,101655.75
2023-02-19T09:37:19.000Z,101662.84
2023-02-19T09:41:37.613Z,101672.97
2023-02-19T09:45:39.977Z,101669.47
2023-02-19T09:49:49.834Z,101680.13
2023-02-19T09:53:52.454Z,101686.66
2023-02-19T09:57:54.300Z,101701.34
2023-02-19T10:02:03.007Z,101701.28
2023-02-19T10:06:25.742Z,101714.25
2023-02-19T10:10:35.215Z,101721.19
2023-02-19T10:14:41.747Z,101732.28
2023-02-19T10:18:45.041Z,101727.88
2023-02-19T10:22:46.726Z,101728.47
2023-02-19T10:26:50.073Z,101744.25
2023-02-19T10:30:54.907Z,101752.78
2023-02-19T10:35:14.618Z,101767.72
2023-02-19T10:39:21.832Z,101777.28
2023-02-19T10:43:31.615Z,101778.50
2023-02-19T10:47:33.214Z,101798.91
2023-02-19T10:51:37.975Z,101795.31
2023-02-19T10:55:41.127Z,101799.25
2023-02-19T10:59:51.337Z,101807.44
2023-02-19T11:04:15.123Z,101818.00
2023-02-19T11:08:22.803Z,101825.19
2023-02-19T11:12:36.036Z,101822.00
2023-02-19T11:16:41.034Z,101832.00
2023-02-19T11:21:03.774Z,101829.03
2023-02-19T11:25:18.350Z,101841.06
2023-02-19T11:29:23.156Z,101843.06
2023-02-19T11:33:27.286Z,101850.31
2023-02-19T11:37:28.858Z,101852.97
2023-02-19T11:42:02.510Z,101860.13
2023-02-19T11:46:21.178Z,101860.28
2023-02-19T11:50:29.197Z,101866.34
2023-02-19T11:54:51.925Z,101859.41
2023-02-19T11:59:07.346Z,101864.72
2023-02-19T12:03:48.757Z,101876.16
2023-02-19T12:08:10.230Z,101875.47
2023-02-19T12:12:38.803Z,101880.59
2023-02-19T12:17:23.420Z,101894.47
2023-02-19T12:21:47.451Z,101891.28
2023-02-19T12:26:03.278Z,101891.50
2023-02-19T12:30:26.210Z,101890.63
2023-02-19T12:34:39.787Z,101905.66
2023-02-19T12:38:54.843Z,101898.66
2023-02-19T12:43:10.788Z,101911.97
2023-02-19T12:47:28.334Z,101913.63
2023-02-19T12:51:47.372Z,101918.13
2023-02-19T12:55:48.959Z,101927.88
2023-02-19T13:00:02.722Z,101929.00
2023-02-19T13:04:19.098Z,101933.34
2023-02-19T13:08:34.114Z,101934.28
2023-02-19T13:12:43.387Z,101946.00
2023-02-19T13:16:51.196Z,101946.34
2023-02-19T13:20:55.296Z,101931.28
2023-02-19T13:24:57.581Z,101930.34
2023-02-19T13:29:20.645Z,101925.03
2023-02-19T13:33:39.223Z,101921.34
2023-02-19T13:37:41.547Z,101917.03
2023-02-19T13:41:50.377Z,101906.72
2023-02-19T13:45:58.967Z,101895.34
2023-02-19T13:50:06.922Z,101891.66
2023-02-19T13:54:21.689Z,101891.81
2023-02-19T13:58:52.773Z,101897.00
2023-02-19T14:03:26.741Z,101896.25
2023-02-19T14:07:28.150Z,101906.28
2023-02-19T14:11:41.513Z,101915.88
2023-02-19T14:15:49.235Z,101922.09
2023-02-19T14:19:58.638Z,101919.78
2023-02-19T14:24:01.526Z,101915.34
2023-02-19T14:28:38.383Z,101912.50
2023-02-19T14:32:43.644Z,101922.81
2023-02-19T14:37:00.943Z,101914.44
2023-02-19T14:41:03.835Z,101925.72
2023-02-19T14:45:06.999Z,101925.66
2023-02-19T14:49:23.001Z,101941.38
2023-02-19T14:53:27.388Z,101932.16
2023-02-19T14:57:32.230Z,101934.97
2023-02-19T15:01:33.726Z,101936.34
2023-02-19T15:05:37.396Z,101931.53
2023-02-19T15:09:48.720Z,101924.34
2023-02-19T15:13:57.058Z,101929.03
2023-02-19T15:18:01.182Z,101933.84
2023-02-19T15:22:03.296Z,101937.63
2023-02-19T15:26:04.931Z,101933.31
2023-02-19T15:30:19.616Z,101923.44
2023-02-19T15:34:24.240Z,101949.22
2023-02-19T15:38:26.249Z,101930.28
2023-02-19T15:42:30.459Z,101940.25
2023-02-19T15:46:32.564Z,101954.34
2023-02-19T15:50:41.134Z,101959.22
2023-02-19T15:54:59.457Z,101951.38
2023-02-19T15:59:13.303Z,101947.72
2023-02-19T16:03:23.291Z,101951.34
2023-02-19T16:07:31.957Z,101943.50
2023-02-19T16:11:49.899Z,101949.81
2023-02-19T16:16:25.476Z,101946.00
2023-02-19T16:20:33.117Z,101939.97
2023-02-19T16:24:40.969Z,101943.19
2023-02-19T16:28:42.614Z,101935.28
2023-02-19T16:32:46.743Z,101932.69
2023-02-19T16:36:49.218Z,101930.09
2023-02-19T16:40:50.864Z,101932.00
2023-02-19T16:44:52.356Z,101932.66
2023-02-19T16:48:54.460Z,101938.06
2023-02-19T16:53:02.293Z,101934.56
2023-02-19T16:57:03.806Z,101933.50
2023-02-19T17:01:05.359Z,101933.31
2023-02-19T17:05:07.005Z,101933.75
2023-02-19T17:09:09.131Z,101945.56
2023-02-19T17:13:10.576Z,101931.78
2023-02-19T17:17:12.077Z,101938.22
2023-02-19T17:21:20.281Z,101948.66
2023-02-19T17:25:21.834Z,101964.56
2023-02-19T17:29:24.450Z,101962.06
2023-02-19T17:33:25.853Z,101954.28
2023-02-19T17:37:27.296Z,101949.34
2023-02-19T17:41:29.348Z,101962.31
2023-02-19T17:45:31.350Z,101960.69
2023-02-19T17:49:32.852Z,101969.91
2023-02-19T17:53:34.262Z,101972.06
2023-02-19T17:57:35.765Z,101978.34
2023-02-19T18:01:37.651Z,101980.00
2023-02-19T18:05:39.098Z,101977.97
2023-02-19T18:09:41.107Z,101973.84
2023-02-19T18:13:42.621Z,101974.94
2023-02-19T18:17:44.413Z,101978.91
2023-02-19T18:21:45.824Z,101977.00
2023-02-19T18:25:47.450Z,101968.66
2023-02-19T18:29:54.503Z,101976.19
2023-02-19T18:33:55.930Z,101968.75
2023-02-19T18:37:57.483Z,101963.50
2023-02-19T18:41:58.978Z,101961.09
2023-02-19T18:46:00.430Z,101960.13
2023-02-19T18:50:02.072Z,101960.34
2023-02-19T18:54:04.091Z,101961.44
2023-02-19T18:58:05.500Z,101965.69
2023-02-19T19:02:09.242Z,101947.22
2023-02-19T19:06:10.690Z,101949.94
2023-02-19T19:10:12.298Z,101944.38
2023-02-19T19:14:14.110Z,101951.75
2023-02-19T19:18:15.505Z,101943.03
2023-02-19T19:22:22.582Z,101943.25
2023-02-19T19:26:24.008Z,101938.53
2023-02-19T19:30:25.489Z,101942.56
2023-02-19T19:34:27.009Z,101940.81
2023-02-19T19:38:28.469Z,101949.69
2023-02-19T19:42:29.906Z,101943.56
2023-02-19T19:46:32.224Z,101943.31
2023-02-19T19:50:33.918Z,101942.47
2023-02-19T19:54:35.372Z,101935.97
2023-02-19T19:58:37.274Z,101930.09
2023-02-19T20:02:38.939Z,101938.31
2023-02-19T20:06:40.487Z,101947.94
2023-02-19T20:10:43.037Z,101948.22
2023-02-19T20:14:46.189Z,101948.16
2023-02-19T20:18:47.622Z,101948.03
2023-02-19T20:22:51.687Z,101955.22
2023-02-19T20:26:58.410Z,101947.22
2023-02-19T20:31:00.230Z,101946.22
2023-02-19T20:35:01.811Z,101944.31
2023-02-19T20:39:03.436Z,101931.31
2023-02-19T20:43:04.851Z,101923.41
2023-02-19T20:47:06.400Z,101926.41
2023-02-19T20:51:07.854Z,101927.53
2023-02-19T20:55:09.430Z,101926.56
2023-02-19T20:59:10.980Z,101916.09
2023-02-19T21:03:12.408Z,101912.44
2023-02-19T21:07:14.111Z,101909.25
2023-02-19T21:11:15.564Z,101906.06
2023-02-19T21:15:17.114Z,101911.53
2023-02-19T21:19:18.570Z,101899.00
2023-02-19T21:23:20.057Z,101903.34
2023-02-19T21:27:21.551Z,101892.97
2023-02-19T21:31:25.457Z,101884.91
2023-02-19T21:35:27.870Z,101889.22
2023-02-19T21:39:31.199Z,101888.75
2023-02-19T21:43:32.627Z,101894.41
2023-02-19T21:47:34.161Z,101896.56
2023-02-19T21:51:38.536Z,101890.44
2023-02-19T21:55:42.913Z,101896.47
2023-02-19T21:59:51.495Z,101893.69
2023-02-19T22:03:53.168Z,101884.25
2023-02-19T22:07:54.586Z,101875.63
2023-02-19T22:11:56.057Z,101879.03
2023-02-19T22:15:57.561Z,101872.84
2023-02-19T22:19:58.971Z,101864.03
2023-02-19T22:24:02.144Z,101869.72
2023-02-19T22:28:05.260Z,101854.94
2023-02-19T22:32:07.157Z,101858.41
2023-02-19T22:36:23.779Z,101849.97
2023-02-19T22:40:25.490Z,101850.50
2023-02-19T22:44:27.072Z,101837.50
2023-02-19T22:48:30.578Z,101830.63
2023-02-19T22:52:32.092Z,101819.19
2023-02-19T22:56:33.540Z,101820.09
2023-02-19T23:00:35.007Z,101832.31
2023-02-19T23:04:36.522Z,101812.59
2023-02-19T23:08:38.025Z,101822.09
2023-02-19T23:12:40.600Z,101806.34
2023-02-19T23:16:42.083Z,101809.88
2023-02-19T23:20:43.554Z,101791.59
2023-02-19T23:24:44.967Z,101804.03
2023-02-19T23:28:46.667Z,101788.00
2023-02-19T23:32:48.110Z,101777.63
2023-02-19T23:36:51.111Z,101770.47
2023-02-19T23:40:52.608Z,101760.75
2023-02-19T23:44:54.052Z,101759.56
2023-02-19T23:48:55.502Z,101759.56
2023-02-19T23:52:59.090Z,101752.75
2023-02-19T23:57:00.721Z,101746.41
